sensor_id;sensor_type;location;lat;lon;timestamp;pressure;altitude;pressure_sealevel;temperature;humidity
8253;BME280;61313;48.396;10.008;2024-02-21T00:01:46;97216.13;;;7.16;63.10
8253;BME280;61313;48.396;10.008;2024-02-21T00:04:12;97213.47;;;7.19;64.01
8253;BME280;61313;48.396;10.008;2024-02-21T00:06:37;97211.59;;;7.26;63.19
8253;BME280;61313;48.396;10.008;2024-02-21T00:09:03;97212.63;;;7.17;63.28
8253;BME280;61313;48.396;10.008;2024-02-21T00:11:28;97204.00;;;7.14;63.52
8253;BME280;61313;48.396;10.008;2024-02-21T00:13:53;97199.38;;;7.28;63.48
8253;BME280;61313;48.396;10.008;2024-02-21T00:16:19;97197.88;;;7.15;63.59
8253;BME280;61313;48.396;10.008;2024-02-21T00:18:44;97197.72;;;7.22;63.86
8253;BME280;61313;48.396;10.008;2024-02-21T00:21:10;97202.88;;;7.27;63.64
8253;BME280;61313;48.396;10.008;2024-02-21T00:23:40;97197.72;;;7.24;62.93
8253;BME280;61313;48.396;10.008;2024-02-21T00:26:05;97190.09;;;7.12;63.35
8253;BME280;61313;48.396;10.008;2024-02-21T00:28:31;97198.00;;;7.09;64.23
8253;BME280;61313;48.396;10.008;2024-02-21T00:30:56;97195.19;;;7.19;64.35
8253;BME280;61313;48.396;10.008;2024-02-21T00:33:22;97188.41;;;7.09;64.01
8253;BME280;61313;48.396;10.008;2024-02-21T00:35:47;97186.03;;;6.95;64.83
8253;BME280;61313;48.396;10.008;2024-02-21T00:38:12;97187.75;;;6.96;64.63
8253;BME280;61313;48.396;10.008;2024-02-21T00:40:38;97193.66;;;7.08;64.21
8253;BME280;61313;48.396;10.008;2024-02-21T00:43:03;97195.53;;;6.99;64.62
8253;BME280;61313;48.396;10.008;2024-02-21T00:45:28;97189.97;;;7.18;63.59
8253;BME280;61313;48.396;10.008;2024-02-21T00:47:54;97198.00;;;7.07;64.06
8253;BME280;61313;48.396;10.008;2024-02-21T00:50:19;97196.25;;;7.08;64.27
8253;BME280;61313;48.396;10.008;2024-02-21T00:52:45;97198.09;;;7.01;63.89
8253;BME280;61313;48.396;10.008;2024-02-21T00:55:10;97188.59;;;6.98;64.49
8253;BME280;61313;48.396;10.008;2024-02-21T00:57:36;97193.94;;;6.91;64.59
8253;BME280;61313;48.396;10.008;2024-02-21T01:00:05;97183.44;;;6.95;64.03
8253;BME280;61313;48.396;10.008;2024-02-21T01:02:30;97181.34;;;7.14;63.26
8253;BME280;61313;48.396;10.008;2024-02-21T01:04:59;97173.75;;;7.00;63.69
8253;BME280;61313;48.396;10.008;2024-02-21T01:07:24;97173.00;;;6.95;64.17
8253;BME280;61313;48.396;10.008;2024-02-21T01:09:50;97172.06;;;6.99;64.16
8253;BME280;61313;48.396;10.008;2024-02-21T01:12:16;97161.63;;;6.99;64.16
8253;BME280;61313;48.396;10.008;2024-02-21T01:14:42;97158.88;;;7.07;63.64
8253;BME280;61313;48.396;10.008;2024-02-21T01:17:07;97152.19;;;6.92;63.88
8253;BME280;61313;48.396;10.008;2024-02-21T01:19:32;97158.16;;;6.97;63.66
8253;BME280;61313;48.396;10.008;2024-02-21T01:21:58;97158.88;;;7.06;63.69
8253;BME280;61313;48.396;10.008;2024-02-21T01:24:23;97146.53;;;7.15;63.15
8253;BME280;61313;48.396;10.008;2024-02-21T01:26:49;97148.50;;;7.04;63.52
8253;BME280;61313;48.396;10.008;2024-02-21T01:29:15;97148.53;;;7.01;64.18
8253;BME280;61313;48.396;10.008;2024-02-21T01:31:40;97138.97;;;7.02;63.38
8253;BME280;61313;48.396;10.008;2024-02-21T01:34:06;97139.06;;;6.95;64.08
8253;BME280;61313;48.396;10.008;2024-02-21T01:36:31;97132.00;;;7.00;63.65
8253;BME280;61313;48.396;10.008;2024-02-21T01:38:56;97132.19;;;6.91;64.26
8253;BME280;61313;48.396;10.008;2024-02-21T01:41:22;97129.47;;;6.96;64.48
8253;BME280;61313;48.396;10.008;2024-02-21T01:43:47;97134.78;;;6.91;64.26
8253;BME280;61313;48.396;10.008;2024-02-21T01:46:13;97128.06;;;6.78;65.26
8253;BME280;61313;48.396;10.008;2024-02-21T01:48:38;97120.81;;;6.95;64.32
8253;BME280;61313;48.396;10.008;2024-02-21T01:51:04;97123.47;;;6.92;64.32
8253;BME280;61313;48.396;10.008;2024-02-21T01:53:32;97111.88;;;7.09;63.54
8253;BME280;61313;48.396;10.008;2024-02-21T01:55:58;97109.34;;;7.04;64.09
8253;BME280;61313;48.396;10.008;2024-02-21T01:58:23;97110.50;;;6.88;64.16
8253;BME280;61313;48.396;10.008;2024-02-21T02:00:50;97107.81;;;6.92;64.57
8253;BME280;61313;48.396;10.008;2024-02-21T02:03:16;97110.44;;;6.91;64.59
8253;BME280;61313;48.396;10.008;2024-02-21T02:05:45;97094.78;;;6.92;64.63
8253;BME280;61313;48.396;10.008;2024-02-21T02:08:12;97086.13;;;6.89;64.74
8253;BME280;61313;48.396;10.008;2024-02-21T02:10:39;97088.03;;;6.81;64.68
8253;BME280;61313;48.396;10.008;2024-02-21T02:13:05;97080.72;;;6.99;64.25
8253;BME280;61313;48.396;10.008;2024-02-21T02:15:47;97079.31;;;6.82;64.70
8253;BME280;61313;48.396;10.008;2024-02-21T02:18:14;97084.44;;;6.86;64.50
8253;BME280;61313;48.396;10.008;2024-02-21T02:20:40;97078.47;;;6.79;64.89
8253;BME280;61313;48.396;10.008;2024-02-21T02:23:12;97077.47;;;6.87;64.27
8253;BME280;61313;48.396;10.008;2024-02-21T02:25:39;97076.38;;;6.98;64.06
8253;BME280;61313;48.396;10.008;2024-02-21T02:28:06;97079.06;;;6.94;64.66
8253;BME280;61313;48.396;10.008;2024-02-21T02:30:35;97075.69;;;6.89;64.77
8253;BME280;61313;48.396;10.008;2024-02-21T02:33:04;97067.69;;;6.99;64.39
8253;BME280;61313;48.396;10.008;2024-02-21T02:35:30;97053.66;;;7.04;64.59
8253;BME280;61313;48.396;10.008;2024-02-21T02:37:56;97050.50;;;6.88;64.55
8253;BME280;61313;48.396;10.008;2024-02-21T02:40:21;97047.00;;;6.87;64.82
8253;BME280;61313;48.396;10.008;2024-02-21T02:42:47;97042.63;;;6.89;64.32
8253;BME280;61313;48.396;10.008;2024-02-21T02:45:15;97048.22;;;6.69;65.82
8253;BME280;61313;48.396;10.008;2024-02-21T02:47:40;97051.69;;;6.71;65.52
8253;BME280;61313;48.396;10.008;2024-02-21T02:50:07;97042.88;;;6.75;65.35
8253;BME280;61313;48.396;10.008;2024-02-21T02:52:32;97052.28;;;6.84;65.35
8253;BME280;61313;48.396;10.008;2024-02-21T02:54:58;97052.19;;;6.90;64.73
8253;BME280;61313;48.396;10.008;2024-02-21T02:57:23;97048.50;;;7.00;64.19
8253;BME280;61313;48.396;10.008;2024-02-21T02:59:50;97046.75;;;7.01;64.59
8253;BME280;61313;48.396;10.008;2024-02-21T03:02:15;97036.53;;;6.90;64.94
8253;BME280;61313;48.396;10.008;2024-02-21T03:04:41;97034.81;;;6.89;64.84
8253;BME280;61313;48.396;10.008;2024-02-21T03:07:06;97033.84;;;6.95;64.21
8253;BME280;61313;48.396;10.008;2024-02-21T03:09:32;97025.97;;;6.96;64.31
8253;BME280;61313;48.396;10.008;2024-02-21T03:11:57;97026.88;;;6.95;64.75
8253;BME280;61313;48.396;10.008;2024-02-21T03:14:28;97020.75;;;6.96;64.14
8253;BME280;61313;48.396;10.008;2024-02-21T03:16:54;97014.91;;;6.85;63.87
8253;BME280;61313;48.396;10.008;2024-02-21T03:19:19;97015.69;;;6.89;63.89
8253;BME280;61313;48.396;10.008;2024-02-21T03:21:45;97020.56;;;7.06;63.54
8253;BME280;61313;48.396;10.008;2024-02-21T03:24:10;97018.22;;;6.93;64.30
8253;BME280;61313;48.396;10.008;2024-02-21T03:26:36;97019.91;;;6.94;64.01
8253;BME280;61313;48.396;10.008;2024-02-21T03:29:01;97017.00;;;6.66;64.98
8253;BME280;61313;48.396;10.008;2024-02-21T03:31:27;97019.53;;;6.71;64.76
8253;BME280;61313;48.396;10.008;2024-02-21T03:33:52;97027.13;;;6.82;64.42
8253;BME280;61313;48.396;10.008;2024-02-21T03:36:18;97017.47;;;6.87;64.22
8253;BME280;61313;48.396;10.008;2024-02-21T03:38:43;97012.16;;;6.91;64.19
8253;BME280;61313;48.396;10.008;2024-02-21T03:41:08;97004.16;;;6.99;64.15
8253;BME280;61313;48.396;10.008;2024-02-21T03:43:34;97014.81;;;6.90;64.28
8253;BME280;61313;48.396;10.008;2024-02-21T03:45:59;97005.19;;;6.92;63.71
8253;BME280;61313;48.396;10.008;2024-02-21T03:48:24;96994.63;;;6.99;63.97
8253;BME280;61313;48.396;10.008;2024-02-21T03:50:50;96986.97;;;6.90;64.25
8253;BME280;61313;48.396;10.008;2024-02-21T03:53:16;96973.16;;;6.85;64.10
8253;BME280;61313;48.396;10.008;2024-02-21T03:55:41;96978.72;;;6.67;64.96
8253;BME280;61313;48.396;10.008;2024-02-21T03:58:07;96979.50;;;6.72;65.05
8253;BME280;61313;48.396;10.008;2024-02-21T04:00:32;96986.19;;;6.85;64.18
8253;BME280;61313;48.396;10.008;2024-02-21T04:02:57;96995.81;;;6.83;64.20
8253;BME280;61313;48.396;10.008;2024-02-21T04:05:23;96987.22;;;6.78;64.86
8253;BME280;61313;48.396;10.008;2024-02-21T04:07:50;96986.13;;;6.88;64.32
8253;BME280;61313;48.396;10.008;2024-02-21T04:10:16;96981.84;;;6.84;64.49
8253;BME280;61313;48.396;10.008;2024-02-21T04:12:41;96977.38;;;6.92;63.98
8253;BME280;61313;48.396;10.008;2024-02-21T04:15:07;96979.16;;;6.89;64.45
8253;BME280;61313;48.396;10.008;2024-02-21T04:17:33;96968.75;;;6.87;64.70
8253;BME280;61313;48.396;10.008;2024-02-21T04:20:05;96965.50;;;6.76;64.89
8253;BME280;61313;48.396;10.008;2024-02-21T04:22:31;96962.00;;;6.77;64.91
8253;BME280;61313;48.396;10.008;2024-02-21T04:24:59;96955.94;;;6.76;64.84
8253;BME280;61313;48.396;10.008;2024-02-21T04:27:24;96964.44;;;6.86;64.77
8253;BME280;61313;48.396;10.008;2024-02-21T04:29:50;96957.47;;;6.87;64.55
8253;BME280;61313;48.396;10.008;2024-02-21T04:32:15;96946.19;;;6.85;64.88
8253;BME280;61313;48.396;10.008;2024-02-21T04:34:41;96949.69;;;6.85;64.57
8253;BME280;61313;48.396;10.008;2024-02-21T04:37:07;96934.81;;;6.87;64.37
8253;BME280;61313;48.396;10.008;2024-02-21T04:39:32;96929.94;;;6.72;64.89
8253;BME280;61313;48.396;10.008;2024-02-21T04:41:58;96931.59;;;6.76;64.65
8253;BME280;61313;48.396;10.008;2024-02-21T04:44:23;96925.75;;;6.65;65.09
8253;BME280;61313;48.396;10.008;2024-02-21T04:46:48;96936.06;;;6.71;65.26
8253;BME280;61313;48.396;10.008;2024-02-21T04:49:14;96935.25;;;6.67;65.53
8253;BME280;61313;48.396;10.008;2024-02-21T04:51:40;96941.28;;;6.69;65.08
8253;BME280;61313;48.396;10.008;2024-02-21T04:54:06;96944.69;;;6.73;65.37
8253;BME280;61313;48.396;10.008;2024-02-21T04:56:31;96935.66;;;6.89;64.58
8253;BME280;61313;48.396;10.008;2024-02-21T04:58:57;96925.56;;;6.74;65.64
8253;BME280;61313;48.396;10.008;2024-02-21T05:01:22;96914.88;;;6.85;64.75
8253;BME280;61313;48.396;10.008;2024-02-21T05:03:47;96919.97;;;6.92;64.72
8253;BME280;61313;48.396;10.008;2024-02-21T05:06:13;96906.88;;;6.94;64.59
8253;BME280;61313;48.396;10.008;2024-02-21T05:08:40;96900.03;;;6.88;64.73
8253;BME280;61313;48.396;10.008;2024-02-21T05:11:05;96899.00;;;6.95;64.95
8253;BME280;61313;48.396;10.008;2024-02-21T05:13:30;96892.28;;;6.85;65.10
8253;BME280;61313;48.396;10.008;2024-02-21T05:15:56;96880.00;;;6.90;64.76
8253;BME280;61313;48.396;10.008;2024-02-21T05:18:21;96867.28;;;6.75;65.60
8253;BME280;61313;48.396;10.008;2024-02-21T05:20:47;96867.50;;;6.64;65.90
8253;BME280;61313;48.396;10.008;2024-02-21T05:23:12;96874.22;;;6.76;65.60
8253;BME280;61313;48.396;10.008;2024-02-21T05:25:37;96872.47;;;6.76;66.04
8253;BME280;61313;48.396;10.008;2024-02-21T05:28:03;96870.06;;;6.66;65.70
8253;BME280;61313;48.396;10.008;2024-02-21T05:30:31;96864.19;;;6.56;66.44
8253;BME280;61313;48.396;10.008;2024-02-21T05:32:56;96866.44;;;6.73;66.07
8253;BME280;61313;48.396;10.008;2024-02-21T05:35:28;96864.03;;;6.64;66.28
8253;BME280;61313;48.396;10.008;2024-02-21T05:37:53;96860.56;;;6.63;66.55
8253;BME280;61313;48.396;10.008;2024-02-21T05:40:19;96858.84;;;6.62;66.55
8253;BME280;61313;48.396;10.008;2024-02-21T05:42:44;96863.22;;;6.62;66.41
8253;BME280;61313;48.396;10.008;2024-02-21T05:45:10;96868.47;;;6.58;66.79
8253;BME280;61313;48.396;10.008;2024-02-21T05:47:35;96866.78;;;6.57;66.58
8253;BME280;61313;48.396;10.008;2024-02-21T05:50:00;96866.41;;;6.76;65.96
8253;BME280;61313;48.396;10.008;2024-02-21T05:52:26;96856.09;;;6.68;66.35
8253;BME280;61313;48.396;10.008;2024-02-21T05:54:51;96868.28;;;6.68;66.51
8253;BME280;61313;48.396;10.008;2024-02-21T05:57:17;96870.03;;;6.69;66.53
8253;BME280;61313;48.396;10.008;2024-02-21T05:59:43;96874.31;;;6.71;66.17
8253;BME280;61313;48.396;10.008;2024-02-21T06:02:09;96867.44;;;6.67;66.12
8253;BME280;61313;48.396;10.008;2024-02-21T06:04:34;96884.09;;;6.62;66.53
8253;BME280;61313;48.396;10.008;2024-02-21T06:07:00;96877.31;;;6.51;66.73
8253;BME280;61313;48.396;10.008;2024-02-21T06:09:25;96877.19;;;6.57;66.86
8253;BME280;61313;48.396;10.008;2024-02-21T06:11:51;96865.75;;;6.65;66.61
8253;BME280;61313;48.396;10.008;2024-02-21T06:14:16;96869.66;;;6.86;65.54
8253;BME280;61313;48.396;10.008;2024-02-21T06:16:43;96867.00;;;6.87;65.40
8253;BME280;61313;48.396;10.008;2024-02-21T06:19:09;96875.06;;;6.76;66.19
8253;BME280;61313;48.396;10.008;2024-02-21T06:21:34;96875.94;;;6.75;66.22
8253;BME280;61313;48.396;10.008;2024-02-21T06:24:00;96865.22;;;6.89;65.64
8253;BME280;61313;48.396;10.008;2024-02-21T06:26:25;96856.75;;;6.79;65.78
8253;BME280;61313;48.396;10.008;2024-02-21T06:28:51;96855.78;;;6.85;65.22
8253;BME280;61313;48.396;10.008;2024-02-21T06:31:16;96834.91;;;6.85;65.44
8253;BME280;61313;48.396;10.008;2024-02-21T06:33:42;96826.16;;;6.86;65.22
8253;BME280;61313;48.396;10.008;2024-02-21T06:36:08;96842.81;;;6.81;65.45
8253;BME280;61313;48.396;10.008;2024-02-21T06:38:33;96845.06;;;6.96;64.89
8253;BME280;61313;48.396;10.008;2024-02-21T06:41:01;96860.81;;;6.93;64.87
8253;BME280;61313;48.396;10.008;2024-02-21T06:43:28;96863.16;;;7.42;63.43
8253;BME280;61313;48.396;10.008;2024-02-21T06:45:53;96868.06;;;8.55;60.42
8253;BME280;61313;48.396;10.008;2024-02-21T06:48:19;96867.19;;;9.43;56.90
8253;BME280;61313;48.396;10.008;2024-02-21T06:50:44;96846.41;;;9.90;54.79
8253;BME280;61313;48.396;10.008;2024-02-21T06:53:10;96850.22;;;10.32;53.40
8253;BME280;61313;48.396;10.008;2024-02-21T06:55:35;96845.22;;;11.20;51.41
8253;BME280;61313;48.396;10.008;2024-02-21T06:58:01;96839.44;;;11.54;49.80
8253;BME280;61313;48.396;10.008;2024-02-21T07:00:28;96829.28;;;11.89;49.31
8253;BME280;61313;48.396;10.008;2024-02-21T07:02:54;96822.72;;;12.20;47.78
8253;BME280;61313;48.396;10.008;2024-02-21T07:05:19;96815.53;;;13.01;46.18
8253;BME280;61313;48.396;10.008;2024-02-21T07:07:44;96821.53;;;13.23;44.78
8253;BME280;61313;48.396;10.008;2024-02-21T07:10:10;96819.63;;;13.81;43.46
8253;BME280;61313;48.396;10.008;2024-02-21T07:12:39;96815.94;;;14.53;42.07
8253;BME280;61313;48.396;10.008;2024-02-21T07:15:07;96821.06;;;14.38;41.97
8253;BME280;61313;48.396;10.008;2024-02-21T07:17:32;96809.00;;;14.50;41.84
8253;BME280;61313;48.396;10.008;2024-02-21T07:19:58;96803.88;;;14.47;41.92
8253;BME280;61313;48.396;10.008;2024-02-21T07:22:24;96792.44;;;15.75;39.63
8253;BME280;61313;48.396;10.008;2024-02-21T07:24:49;96778.72;;;15.53;39.44
8253;BME280;61313;48.396;10.008;2024-02-21T07:27:15;96794.16;;;15.60;39.47
8253;BME280;61313;48.396;10.008;2024-02-21T07:29:41;96794.66;;;15.67;39.11
8253;BME280;61313;48.396;10.008;2024-02-21T07:32:06;96792.56;;;16.18;38.33
8253;BME280;61313;48.396;10.008;2024-02-21T07:34:32;96794.16;;;15.76;38.88
8253;BME280;61313;48.396;10.008;2024-02-21T07:36:57;96790.84;;;15.87;38.81
8253;BME280;61313;48.396;10.008;2024-02-21T07:39:23;96799.88;;;15.99;38.55
8253;BME280;61313;48.396;10.008;2024-02-21T07:41:48;96798.81;;;16.46;37.66
8253;BME280;61313;48.396;10.008;2024-02-21T07:44:15;96789.75;;;16.79;37.09
8253;BME280;61313;48.396;10.008;2024-02-21T07:46:40;96794.66;;;16.56;36.93
8253;BME280;61313;48.396;10.008;2024-02-21T07:49:06;96785.00;;;16.69;36.89
8253;BME280;61313;48.396;10.008;2024-02-21T07:51:31;96777.72;;;16.73;36.59
8253;BME280;61313;48.396;10.008;2024-02-21T07:53:57;96767.47;;;17.37;35.55
8253;BME280;61313;48.396;10.008;2024-02-21T07:56:22;96766.31;;;17.68;34.99
8253;BME280;61313;48.396;10.008;2024-02-21T07:58:47;96766.53;;;18.44;33.37
8253;BME280;61313;48.396;10.008;2024-02-21T08:01:19;96773.06;;;17.87;34.43
8253;BME280;61313;48.396;10.008;2024-02-21T08:03:47;96770.09;;;17.51;35.01
8253;BME280;61313;48.396;10.008;2024-02-21T08:06:13;96753.88;;;18.09;34.00
8253;BME280;61313;48.396;10.008;2024-02-21T08:08:39;96768.03;;;17.69;34.60
8253;BME280;61313;48.396;10.008;2024-02-21T08:11:04;96765.75;;;17.63;34.71
8253;BME280;61313;48.396;10.008;2024-02-21T08:13:30;96763.66;;;18.47;33.64
8253;BME280;61313;48.396;10.008;2024-02-21T08:15:55;96755.81;;;18.19;33.79
8253;BME280;61313;48.396;10.008;2024-02-21T08:18:22;96747.41;;;18.64;33.31
8253;BME280;61313;48.396;10.008;2024-02-21T08:20:47;96745.72;;;18.25;33.50
8253;BME280;61313;48.396;10.008;2024-02-21T08:23:15;96747.41;;;18.26;33.93
8253;BME280;61313;48.396;10.008;2024-02-21T08:25:41;96737.72;;;17.86;34.55
8253;BME280;61313;48.396;10.008;2024-02-21T08:28:06;96737.50;;;17.22;35.54
8253;BME280;61313;48.396;10.008;2024-02-21T08:30:33;96732.41;;;18.50;39.04
8253;BME280;61313;48.396;10.008;2024-02-21T08:32:58;96729.47;;;18.92;36.48
8253;BME280;61313;48.396;10.008;2024-02-21T08:35:23;96729.78;;;17.05;36.16
8253;BME280;61313;48.396;10.008;2024-02-21T08:37:49;96720.31;;;16.30;37.37
8253;BME280;61313;48.396;10.008;2024-02-21T08:40:14;96735.69;;;15.95;38.72
8253;BME280;61313;48.396;10.008;2024-02-21T08:42:43;96734.88;;;15.49;39.43
8253;BME280;61313;48.396;10.008;2024-02-21T08:45:09;96729.72;;;15.31;39.95
8253;BME280;61313;48.396;10.008;2024-02-21T08:47:34;96727.88;;;15.01;40.49
8253;BME280;61313;48.396;10.008;2024-02-21T08:50:01;96738.53;;;14.84;40.81
8253;BME280;61313;48.396;10.008;2024-02-21T08:52:26;96738.16;;;15.22;40.38
8253;BME280;61313;48.396;10.008;2024-02-21T08:54:52;96743.97;;;14.81;40.92
8253;BME280;61313;48.396;10.008;2024-02-21T08:57:19;96734.63;;;14.91;40.44
8253;BME280;61313;48.396;10.008;2024-02-21T08:59:44;96737.00;;;14.80;41.05
8253;BME280;61313;48.396;10.008;2024-02-21T09:02:10;96730.19;;;15.08;40.24
8253;BME280;61313;48.396;10.008;2024-02-21T09:04:35;96724.81;;;14.93;40.72
8253;BME280;61313;48.396;10.008;2024-02-21T09:07:00;96714.72;;;15.00;40.48
8253;BME280;61313;48.396;10.008;2024-02-21T09:09:26;96714.41;;;14.90;40.72
8253;BME280;61313;48.396;10.008;2024-02-21T09:11:53;96716.28;;;14.72;41.06
8253;BME280;61313;48.396;10.008;2024-02-21T09:14:19;96715.38;;;14.40;41.58
8253;BME280;61313;48.396;10.008;2024-02-21T09:16:44;96717.34;;;14.36;41.94
8253;BME280;61313;48.396;10.008;2024-02-21T09:19:09;96717.50;;;14.00;42.83
8253;BME280;61313;48.396;10.008;2024-02-21T09:21:37;96716.34;;;14.06;42.78
8253;BME280;61313;48.396;10.008;2024-02-21T09:24:03;96716.94;;;13.93;43.17
8253;BME280;61313;48.396;10.008;2024-02-21T09:26:28;96708.06;;;13.79;43.22
8253;BME280;61313;48.396;10.008;2024-02-21T09:28:53;96701.22;;;13.74;43.87
8253;BME280;61313;48.396;10.008;2024-02-21T09:31:19;96694.41;;;13.53;43.84
8253;BME280;61313;48.396;10.008;2024-02-21T09:33:45;96696.22;;;13.52;44.50
8253;BME280;61313;48.396;10.008;2024-02-21T09:36:10;96695.91;;;13.41;45.05
8253;BME280;61313;48.396;10.008;2024-02-21T09:38:36;96693.81;;;13.48;43.89
8253;BME280;61313;48.396;10.008;2024-02-21T09:41:15;96695.66;;;13.46;44.38
8253;BME280;61313;48.396;10.008;2024-02-21T09:43:44;96686.75;;;13.31;44.46
8253;BME280;61313;48.396;10.008;2024-02-21T09:46:17;96680.63;;;13.30;44.21
8253;BME280;61313;48.396;10.008;2024-02-21T09:51:18;96684.41;;;12.88;45.29
8253;BME280;61313;48.396;10.008;2024-02-21T09:53:44;96672.94;;;12.89;45.81
8253;BME280;61313;48.396;10.008;2024-02-21T09:56:10;96677.53;;;12.86;46.24
8253;BME280;61313;48.396;10.008;2024-02-21T09:58:37;96680.78;;;12.91;46.13
8253;BME280;61313;48.396;10.008;2024-02-21T10:01:03;96683.56;;;12.88;46.99
8253;BME280;61313;48.396;10.008;2024-02-21T10:03:32;96664.75;;;12.96;47.01
8253;BME280;61313;48.396;10.008;2024-02-21T10:05:58;96661.50;;;12.90;47.06
8253;BME280;61313;48.396;10.008;2024-02-21T10:08:26;96665.66;;;12.77;46.88
8253;BME280;61313;48.396;10.008;2024-02-21T10:10:52;96659.94;;;12.86;47.35
8253;BME280;61313;48.396;10.008;2024-02-21T10:13:30;96655.22;;;12.93;46.25
8253;BME280;61313;48.396;10.008;2024-02-21T10:16:06;96656.56;;;13.02;46.69
8253;BME280;61313;48.396;10.008;2024-02-21T10:18:35;96653.38;;;13.12;46.33
8253;BME280;61313;48.396;10.008;2024-02-21T10:21:05;96647.88;;;13.17;45.87
8253;BME280;61313;48.396;10.008;2024-02-21T10:23:41;96642.16;;;13.44;45.84
8253;BME280;61313;48.396;10.008;2024-02-21T10:26:07;96638.28;;;13.51;45.30
8253;BME280;61313;48.396;10.008;2024-02-21T10:28:33;96640.97;;;13.67;44.72
8253;BME280;61313;48.396;10.008;2024-02-21T10:30:58;96633.41;;;13.61;45.02
8253;BME280;61313;48.396;10.008;2024-02-21T10:33:24;96625.84;;;13.70;44.80
8253;BME280;61313;48.396;10.008;2024-02-21T10:35:50;96620.00;;;13.81;44.15
8253;BME280;61313;48.396;10.008;2024-02-21T10:38:16;96612.25;;;13.78;44.25
8253;BME280;61313;48.396;10.008;2024-02-21T10:40:42;96607.75;;;13.47;44.57
8253;BME280;61313;48.396;10.008;2024-02-21T10:43:12;96606.81;;;13.81;44.14
8253;BME280;61313;48.396;10.008;2024-02-21T10:45:38;96594.91;;;13.90;43.34
8253;BME280;61313;48.396;10.008;2024-02-21T10:48:15;96595.28;;;14.00;43.14
8253;BME280;61313;48.396;10.008;2024-02-21T10:50:57;96596.28;;;13.97;43.09
8253;BME280;61313;48.396;10.008;2024-02-21T10:53:44;96594.28;;;14.34;42.80
8253;BME280;61313;48.396;10.008;2024-02-21T10:56:26;96590.59;;;14.21;43.00
8253;BME280;61313;48.396;10.008;2024-02-21T10:58:52;96584.81;;;14.30;41.99
8253;BME280;61313;48.396;10.008;2024-02-21T11:01:18;96582.91;;;14.48;41.63
8253;BME280;61313;48.396;10.008;2024-02-21T11:03:49;96588.19;;;14.48;41.46
8253;BME280;61313;48.396;10.008;2024-02-21T11:06:16;96583.03;;;14.46;41.08
8253;BME280;61313;48.396;10.008;2024-02-21T11:08:42;96578.59;;;14.31;41.26
8253;BME280;61313;48.396;10.008;2024-02-21T11:11:08;96574.91;;;14.33;40.97
8253;BME280;61313;48.396;10.008;2024-02-21T11:13:37;96566.34;;;14.30;40.88
8253;BME280;61313;48.396;10.008;2024-02-21T11:16:10;96560.72;;;14.20;41.60
8253;BME280;61313;48.396;10.008;2024-02-21T11:18:38;96556.91;;;14.57;41.08
8253;BME280;61313;48.396;10.008;2024-02-21T11:21:04;96551.47;;;14.75;40.23
8253;BME280;61313;48.396;10.008;2024-02-21T11:23:30;96551.16;;;14.65;40.54
8253;BME280;61313;48.396;10.008;2024-02-21T11:26:09;96538.53;;;14.70;40.28
8253;BME280;61313;48.396;10.008;2024-02-21T11:28:34;96544.28;;;14.63;40.63
8253;BME280;61313;48.396;10.008;2024-02-21T11:31:10;96526.03;;;14.58;40.32
8253;BME280;61313;48.396;10.008;2024-02-21T11:33:42;96523.63;;;14.53;40.43
8253;BME280;61313;48.396;10.008;2024-02-21T11:36:09;96516.59;;;14.54;40.23
8253;BME280;61313;48.396;10.008;2024-02-21T11:38:35;96517.16;;;14.43;40.24
8253;BME280;61313;48.396;10.008;2024-02-21T11:41:01;96509.19;;;14.29;40.86
8253;BME280;61313;48.396;10.008;2024-02-21T11:43:27;96498.56;;;14.14;40.90
8253;BME280;61313;48.396;10.008;2024-02-21T11:46:01;96490.41;;;14.03;41.19
8253;BME280;61313;48.396;10.008;2024-02-21T11:48:31;96499.09;;;13.89;41.30
8253;BME280;61313;48.396;10.008;2024-02-21T11:50:57;96478.66;;;13.93;41.81
8253;BME280;61313;48.396;10.008;2024-02-21T11:53:22;96483.69;;;13.82;41.89
8253;BME280;61313;48.396;10.008;2024-02-21T11:55:49;96474.78;;;13.84;42.06
8253;BME280;61313;48.396;10.008;2024-02-21T11:58:15;96474.06;;;13.96;42.21
8253;BME280;61313;48.396;10.008;2024-02-21T12:00:41;96468.88;;;13.95;42.45
8253;BME280;61313;48.396;10.008;2024-02-21T12:03:07;96461.88;;;14.10;42.25
8253;BME280;61313;48.396;10.008;2024-02-21T12:05:32;96466.56;;;14.05;42.51
8253;BME280;61313;48.396;10.008;2024-02-21T12:07:58;96453.16;;;14.24;42.00
8253;BME280;61313;48.396;10.008;2024-02-21T12:10:25;96451.38;;;14.24;42.01
8253;BME280;61313;48.396;10.008;2024-02-21T12:12:51;96447.50;;;14.15;42.33
8253;BME280;61313;48.396;10.008;2024-02-21T12:15:18;96447.63;;;13.82;42.92
8253;BME280;61313;48.396;10.008;2024-02-21T12:17:44;96440.28;;;13.87;43.26
8253;BME280;61313;48.396;10.008;2024-02-21T12:20:10;96433.03;;;13.91;43.24
8253;BME280;61313;48.396;10.008;2024-02-21T12:22:43;96423.44;;;13.90;43.26
8253;BME280;61313;48.396;10.008;2024-02-21T12:25:28;96415.88;;;13.84;43.22
8253;BME280;61313;48.396;10.008;2024-02-21T12:27:54;96410.06;;;13.93;42.90
8253;BME280;61313;48.396;10.008;2024-02-21T12:30:19;96405.00;;;13.74;43.29
8253;BME280;61313;48.396;10.008;2024-02-21T12:32:45;96402.97;;;13.63;43.71
8253;BME280;61313;48.396;10.008;2024-02-21T12:35:11;96396.50;;;13.69;43.43
8253;BME280;61313;48.396;10.008;2024-02-21T12:37:36;96392.50;;;13.77;43.29
8253;BME280;61313;48.396;10.008;2024-02-21T12:40:05;96382.44;;;13.84;43.17
8253;BME280;61313;48.396;10.008;2024-02-21T12:42:32;96387.63;;;13.86;43.36
8253;BME280;61313;48.396;10.008;2024-02-21T12:44:58;96381.25;;;13.90;43.13
8253;BME280;61313;48.396;10.008;2024-02-21T12:47:24;96377.63;;;14.07;42.92
8253;BME280;61313;48.396;10.008;2024-02-21T12:49:52;96374.13;;;14.36;41.78
8253;BME280;61313;48.396;10.008;2024-02-21T12:52:17;96362.81;;;14.49;41.51
8253;BME280;61313;48.396;10.008;2024-02-21T12:54:43;96358.31;;;14.51;41.04
8253;BME280;61313;48.396;10.008;2024-02-21T12:57:08;96356.44;;;14.53;40.84
8253;BME280;61313;48.396;10.008;2024-02-21T12:59:33;96352.06;;;14.37;40.72
8253;BME280;61313;48.396;10.008;2024-02-21T13:01:59;96342.72;;;14.32;41.08
8253;BME280;61313;48.396;10.008;2024-02-21T13:04:24;96339.09;;;14.18;40.32